sensor_id;sensor_type;location;lat;lon;timestamp;P1;durP1;ratioP1;P2;durP2;ratioP2
53439;SDS011;39333;47.044;15.080;2022-12-18T00:02:12;130.30;;;122.60;;
53439;SDS011;39333;47.044;15.080;2022-12-18T00:04:38;126.93;;;120.05;;
53439;SDS011;39333;47.044;15.080;2022-12-18T00:07:05;124.22;;;118.35;;
53439;SDS011;39333;47.044;15.080;2022-12-18T00:09:32;117.65;;;111.82;;
53439;SDS011;39333;47.044;15.080;2022-12-18T00:12:05;129.77;;;122.88;;
53439;SDS011;39333;47.044;15.080;2022-12-18T00:14:44;127.18;;;120.57;;
53439;SDS011;39333;47.044;15.080;2022-12-18T00:17:10;130.90;;;122.78;;
53439;SDS011;39333;47.044;15.080;2022-12-18T00:19:37;123.95;;;117.57;;
53439;SDS011;39333;47.044;15.080;2022-12-18T00:22:04;123.75;;;116.85;;
53439;SDS011;39333;47.044;15.080;2022-12-18T00:24:32;119.78;;;113.65;;
53439;SDS011;39333;47.044;15.080;2022-12-18T00:26:59;124.68;;;117.50;;
53439;SDS011;39333;47.044;15.080;2022-12-18T00:29:25;119.05;;;112.68;;
53439;SDS011;39333;47.044;15.080;2022-12-18T00:31:52;129.30;;;122.32;;
53439;SDS011;39333;47.044;15.080;2022-12-18T00:34:19;118.68;;;112.15;;
53439;SDS011;39333;47.044;15.080;2022-12-18T00:36:46;116.05;;;109.38;;
53439;SDS011;39333;47.044;15.080;2022-12-18T00:39:14;120.00;;;113.07;;
53439;SDS011;39333;47.044;15.080;2022-12-18T00:41:43;123.55;;;116.30;;
53439;SDS011;39333;47.044;15.080;2022-12-18T00:44:30;123.32;;;116.25;;
53439;SDS011;39333;47.044;15.080;2022-12-18T00:46:57;118.07;;;112.13;;
53439;SDS011;39333;47.044;15.080;2022-12-18T00:49:23;132.32;;;124.63;;
53439;SDS011;39333;47.044;15.080;2022-12-18T00:51:50;129.82;;;122.72;;
53439;SDS011;39333;47.044;15.080;2022-12-18T00:54:20;121.30;;;114.97;;
53439;SDS011;39333;47.044;15.080;2022-12-18T00:56:46;128.00;;;120.97;;
53439;SDS011;39333;47.044;15.080;2022-12-18T00:59:16;123.47;;;117.07;;
53439;SDS011;39333;47.044;15.080;2022-12-18T01:01:44;118.10;;;112.18;;
53439;SDS011;39333;47.044;15.080;2022-12-18T01:04:11;125.55;;;118.63;;
53439;SDS011;39333;47.044;15.080;2022-12-18T01:06:38;132.75;;;124.97;;
53439;SDS011;39333;47.044;15.080;2022-12-18T01:09:05;121.60;;;114.72;;
53439;SDS011;39333;47.044;15.080;2022-12-18T01:11:35;131.60;;;124.38;;
53439;SDS011;39333;47.044;15.080;2022-12-18T01:14:03;125.38;;;118.88;;
53439;SDS011;39333;47.044;15.080;2022-12-18T01:16:32;131.40;;;123.82;;
53439;SDS011;39333;47.044;15.080;2022-12-18T01:18:59;122.45;;;115.72;;
53439;SDS011;39333;47.044;15.080;2022-12-18T01:21:26;122.63;;;116.18;;
53439;SDS011;39333;47.044;15.080;2022-12-18T01:23:54;133.20;;;125.53;;
53439;SDS011;39333;47.044;15.080;2022-12-18T01:26:22;121.65;;;114.90;;
53439;SDS011;39333;47.044;15.080;2022-12-18T01:28:50;131.02;;;124.15;;
53439;SDS011;39333;47.044;15.080;2022-12-18T01:31:19;121.95;;;114.60;;
53439;SDS011;39333;47.044;15.080;2022-12-18T01:33:49;124.55;;;117.97;;
53439;SDS011;39333;47.044;15.080;2022-12-18T01:38:52;128.23;;;121.03;;
53439;SDS011;39333;47.044;15.080;2022-12-18T01:41:21;117.45;;;111.00;;
53439;SDS011;39333;47.044;15.080;2022-12-18T01:43:56;116.72;;;110.55;;
53439;SDS011;39333;47.044;15.080;2022-12-18T01:46:24;128.18;;;121.57;;
53439;SDS011;39333;47.044;15.080;2022-12-18T01:48:58;123.43;;;117.57;;
53439;SDS011;39333;47.044;15.080;2022-12-18T01:51:27;116.75;;;110.85;;
53439;SDS011;39333;47.044;15.080;2022-12-18T01:53:57;116.38;;;110.75;;
53439;SDS011;39333;47.044;15.080;2022-12-18T01:56:24;120.53;;;114.07;;
53439;SDS011;39333;47.044;15.080;2022-12-18T01:59:02;133.43;;;126.90;;
53439;SDS011;39333;47.044;15.080;2022-12-18T02:01:32;132.10;;;125.68;;
53439;SDS011;39333;47.044;15.080;2022-12-18T02:04:20;120.10;;;114.30;;
53439;SDS011;39333;47.044;15.080;2022-12-18T02:07:14;125.60;;;119.25;;
53439;SDS011;39333;47.044;15.080;2022-12-18T02:10:02;117.93;;;111.70;;
53439;SDS011;39333;47.044;15.080;2022-12-18T02:12:48;119.28;;;113.38;;
53439;SDS011;39333;47.044;15.080;2022-12-18T02:15:34;116.10;;;110.28;;
53439;SDS011;39333;47.044;15.080;2022-12-18T02:21:08;115.82;;;109.90;;
53439;SDS011;39333;47.044;15.080;2022-12-18T02:29:05;121.22;;;115.85;;
53439;SDS011;39333;47.044;15.080;2022-12-18T02:31:49;109.68;;;104.45;;
53439;SDS011;39333;47.044;15.080;2022-12-18T02:34:20;124.60;;;117.88;;
53439;SDS011;39333;47.044;15.080;2022-12-18T02:36:52;115.32;;;109.18;;
53439;SDS011;39333;47.044;15.080;2022-12-18T02:39:21;116.70;;;110.40;;
53439;SDS011;39333;47.044;15.080;2022-12-18T02:41:57;111.80;;;106.30;;
53439;SDS011;39333;47.044;15.080;2022-12-18T02:44:26;115.57;;;110.00;;
53439;SDS011;39333;47.044;15.080;2022-12-18T02:46:53;120.43;;;114.43;;
53439;SDS011;39333;47.044;15.080;2022-12-18T02:55:37;113.90;;;107.40;;
53439;SDS011;39333;47.044;15.080;2022-12-18T03:01:25;115.53;;;109.47;;
53439;SDS011;39333;47.044;15.080;2022-12-18T03:04:02;119.82;;;113.80;;
53439;SDS011;39333;47.044;15.080;2022-12-18T03:06:40;119.35;;;113.47;;
53439;SDS011;39333;47.044;15.080;2022-12-18T03:09:31;114.72;;;108.68;;
53439;SDS011;39333;47.044;15.080;2022-12-18T03:12:10;117.55;;;110.80;;
53439;SDS011;39333;47.044;15.080;2022-12-18T03:17:57;126.72;;;119.15;;
53439;SDS011;39333;47.044;15.080;2022-12-18T03:20:30;123.43;;;116.60;;
53439;SDS011;39333;47.044;15.080;2022-12-18T03:23:09;115.32;;;109.00;;
53439;SDS011;39333;47.044;15.080;2022-12-18T03:25:44;131.80;;;122.45;;
53439;SDS011;39333;47.044;15.080;2022-12-18T03:28:15;131.00;;;123.60;;
53439;SDS011;39333;47.044;15.080;2022-12-18T03:30:49;123.78;;;117.13;;
53439;SDS011;39333;47.044;15.080;2022-12-18T03:33:27;131.32;;;124.20;;
53439;SDS011;39333;47.044;15.080;2022-12-18T03:35:58;123.97;;;116.43;;
53439;SDS011;39333;47.044;15.080;2022-12-18T03:38:26;124.30;;;118.55;;
53439;SDS011;39333;47.044;15.080;2022-12-18T03:40:56;124.70;;;118.43;;
53439;SDS011;39333;47.044;15.080;2022-12-18T03:43:43;121.30;;;114.53;;
53439;SDS011;39333;47.044;15.080;2022-12-18T03:48:54;118.75;;;112.72;;
53439;SDS011;39333;47.044;15.080;2022-12-18T03:51:32;122.60;;;116.50;;
53439;SDS011;39333;47.044;15.080;2022-12-18T03:54:06;121.82;;;115.00;;
53439;SDS011;39333;47.044;15.080;2022-12-18T03:56:45;126.50;;;119.67;;
53439;SDS011;39333;47.044;15.080;2022-12-18T03:59:16;122.00;;;115.70;;
53439;SDS011;39333;47.044;15.080;2022-12-18T04:01:49;122.70;;;115.97;;
53439;SDS011;39333;47.044;15.080;2022-12-18T04:04:20;115.00;;;109.13;;
53439;SDS011;39333;47.044;15.080;2022-12-18T04:06:48;131.27;;;124.60;;
53439;SDS011;39333;47.044;15.080;2022-12-18T04:09:18;120.97;;;113.70;;
53439;SDS011;39333;47.044;15.080;2022-12-18T04:11:46;117.07;;;110.75;;
53439;SDS011;39333;47.044;15.080;2022-12-18T04:14:15;131.05;;;124.25;;
53439;SDS011;39333;47.044;15.080;2022-12-18T04:16:44;135.63;;;127.45;;
53439;SDS011;39333;47.044;15.080;2022-12-18T04:19:14;116.55;;;110.47;;
53439;SDS011;39333;47.044;15.080;2022-12-18T04:21:43;115.05;;;109.10;;
53439;SDS011;39333;47.044;15.080;2022-12-18T04:24:12;121.32;;;114.28;;
53439;SDS011;39333;47.044;15.080;2022-12-18T04:26:45;115.05;;;109.43;;
53439;SDS011;39333;47.044;15.080;2022-12-18T04:29:15;123.07;;;116.28;;
53439;SDS011;39333;47.044;15.080;2022-12-18T04:31:42;123.88;;;117.00;;
53439;SDS011;39333;47.044;15.080;2022-12-18T04:34:09;127.00;;;121.10;;
53439;SDS011;39333;47.044;15.080;2022-12-18T04:36:42;109.70;;;104.18;;
53439;SDS011;39333;47.044;15.080;2022-12-18T04:39:09;126.75;;;120.28;;
53439;SDS011;39333;47.044;15.080;2022-12-18T04:41:36;122.45;;;116.05;;
53439;SDS011;39333;47.044;15.080;2022-12-18T04:44:03;130.35;;;123.88;;
53439;SDS011;39333;47.044;15.080;2022-12-18T04:46:31;119.07;;;111.60;;
53439;SDS011;39333;47.044;15.080;2022-12-18T04:48:57;130.95;;;124.00;;
53439;SDS011;39333;47.044;15.080;2022-12-18T04:51:24;120.47;;;113.40;;
53439;SDS011;39333;47.044;15.080;2022-12-18T04:53:52;112.60;;;106.53;;
53439;SDS011;39333;47.044;15.080;2022-12-18T04:56:19;115.65;;;109.20;;
53439;SDS011;39333;47.044;15.080;2022-12-18T04:58:47;121.53;;;114.57;;
53439;SDS011;39333;47.044;15.080;2022-12-18T05:01:14;120.03;;;113.05;;
53439;SDS011;39333;47.044;15.080;2022-12-18T05:03:42;126.63;;;119.38;;
53439;SDS011;39333;47.044;15.080;2022-12-18T05:06:09;133.73;;;125.97;;
53439;SDS011;39333;47.044;15.080;2022-12-18T05:08:36;120.30;;;113.55;;
53439;SDS011;39333;47.044;15.080;2022-12-18T05:11:04;121.20;;;113.75;;
53439;SDS011;39333;47.044;15.080;2022-12-18T05:13:33;128.90;;;121.68;;
53439;SDS011;39333;47.044;15.080;2022-12-18T05:16:01;116.68;;;109.93;;
53439;SDS011;39333;47.044;15.080;2022-12-18T05:18:28;128.23;;;120.80;;
53439;SDS011;39333;47.044;15.080;2022-12-18T05:20:55;118.13;;;111.88;;
53439;SDS011;39333;47.044;15.080;2022-12-18T05:23:23;129.85;;;123.00;;
53439;SDS011;39333;47.044;15.080;2022-12-18T05:25:54;116.88;;;110.25;;
53439;SDS011;39333;47.044;15.080;2022-12-18T05:28:23;112.38;;;106.50;;
53439;SDS011;39333;47.044;15.080;2022-12-18T05:30:52;129.27;;;123.30;;
53439;SDS011;39333;47.044;15.080;2022-12-18T05:33:20;129.40;;;122.25;;
53439;SDS011;39333;47.044;15.080;2022-12-18T05:35:52;115.38;;;109.07;;
53439;SDS011;39333;47.044;15.080;2022-12-18T05:38:24;109.43;;;103.83;;
53439;SDS011;39333;47.044;15.080;2022-12-18T05:40:52;115.85;;;109.32;;
53439;SDS011;39333;47.044;15.080;2022-12-18T05:43:19;111.90;;;106.07;;
53439;SDS011;39333;47.044;15.080;2022-12-18T05:45:48;139.07;;;128.93;;
53439;SDS011;39333;47.044;15.080;2022-12-18T05:48:15;115.15;;;108.45;;
53439;SDS011;39333;47.044;15.080;2022-12-18T05:50:43;119.93;;;112.10;;
53439;SDS011;39333;47.044;15.080;2022-12-18T05:53:12;115.97;;;108.90;;
53439;SDS011;39333;47.044;15.080;2022-12-18T05:55:41;133.65;;;123.05;;
53439;SDS011;39333;47.044;15.080;2022-12-18T05:58:09;129.35;;;120.70;;
53439;SDS011;39333;47.044;15.080;2022-12-18T06:00:38;126.10;;;117.38;;
53439;SDS011;39333;47.044;15.080;2022-12-18T06:03:07;123.22;;;115.55;;
53439;SDS011;39333;47.044;15.080;2022-12-18T06:05:37;129.30;;;119.07;;
53439;SDS011;39333;47.044;15.080;2022-12-18T06:08:05;128.05;;;118.75;;
53439;SDS011;39333;47.044;15.080;2022-12-18T06:10:32;134.55;;;126.53;;
53439;SDS011;39333;47.044;15.080;2022-12-18T06:12:59;119.90;;;112.38;;
53439;SDS011;39333;47.044;15.080;2022-12-18T06:15:26;121.38;;;113.28;;
53439;SDS011;39333;47.044;15.080;2022-12-18T06:17:53;118.30;;;111.00;;
53439;SDS011;39333;47.044;15.080;2022-12-18T06:20:20;118.78;;;110.80;;
53439;SDS011;39333;47.044;15.080;2022-12-18T06:22:47;117.00;;;109.03;;
53439;SDS011;39333;47.044;15.080;2022-12-18T06:25:13;116.57;;;108.97;;
53439;SDS011;39333;47.044;15.080;2022-12-18T06:27:40;122.40;;;113.50;;
53439;SDS011;39333;47.044;15.080;2022-12-18T06:30:08;123.60;;;114.78;;
53439;SDS011;39333;47.044;15.080;2022-12-18T06:32:35;119.93;;;112.15;;
53439;SDS011;39333;47.044;15.080;2022-12-18T06:35:02;124.22;;;116.10;;
53439;SDS011;39333;47.044;15.080;2022-12-18T06:37:30;118.97;;;111.68;;
53439;SDS011;39333;47.044;15.080;2022-12-18T06:39:58;121.22;;;113.47;;
53439;SDS011;39333;47.044;15.080;2022-12-18T06:42:24;123.47;;;115.50;;
53439;SDS011;39333;47.044;15.080;2022-12-18T06:44:51;129.38;;;121.57;;
53439;SDS011;39333;47.044;15.080;2022-12-18T06:47:18;118.55;;;111.13;;
53439;SDS011;39333;47.044;15.080;2022-12-18T06:49:44;119.13;;;111.60;;
53439;SDS011;39333;47.044;15.080;2022-12-18T06:52:11;113.82;;;107.25;;
53439;SDS011;39333;47.044;15.080;2022-12-18T06:54:38;119.85;;;111.68;;
53439;SDS011;39333;47.044;15.080;2022-12-18T06:57:05;127.82;;;120.55;;
53439;SDS011;39333;47.044;15.080;2022-12-18T06:59:31;140.95;;;130.40;;
53439;SDS011;39333;47.044;15.080;2022-12-18T07:01:59;134.10;;;123.30;;
53439;SDS011;39333;47.044;15.080;2022-12-18T07:04:29;152.50;;;140.07;;
53439;SDS011;39333;47.044;15.080;2022-12-18T07:06:56;154.88;;;142.05;;
53439;SDS011;39333;47.044;15.080;2022-12-18T07:09:23;149.88;;;138.05;;
53439;SDS011;39333;47.044;15.080;2022-12-18T07:11:51;131.27;;;121.13;;
53439;SDS011;39333;47.044;15.080;2022-12-18T07:14:18;136.10;;;125.75;;
53439;SDS011;39333;47.044;15.080;2022-12-18T07:16:44;136.98;;;126.82;;
53439;SDS011;39333;47.044;15.080;2022-12-18T07:19:11;138.10;;;126.68;;
53439;SDS011;39333;47.044;15.080;2022-12-18T07:21:38;127.20;;;117.35;;
53439;SDS011;39333;47.044;15.080;2022-12-18T07:24:05;128.23;;;118.28;;
53439;SDS011;39333;47.044;15.080;2022-12-18T07:26:32;135.02;;;123.68;;
53439;SDS011;39333;47.044;15.080;2022-12-18T07:28:59;137.57;;;127.13;;
53439;SDS011;39333;47.044;15.080;2022-12-18T07:31:26;143.05;;;132.50;;
53439;SDS011;39333;47.044;15.080;2022-12-18T07:33:53;414.55;;;199.10;;
53439;SDS011;39333;47.044;15.080;2022-12-18T07:36:21;130.10;;;118.88;;
53439;SDS011;39333;47.044;15.080;2022-12-18T07:38:48;144.82;;;133.20;;
53439;SDS011;39333;47.044;15.080;2022-12-18T07:41:15;151.07;;;136.02;;
53439;SDS011;39333;47.044;15.080;2022-12-18T07:43:42;141.05;;;128.40;;
53439;SDS011;39333;47.044;15.080;2022-12-18T07:46:10;144.20;;;131.13;;
53439;SDS011;39333;47.044;15.080;2022-12-18T07:48:40;145.02;;;131.88;;
53439;SDS011;39333;47.044;15.080;2022-12-18T07:51:09;136.43;;;125.28;;
53439;SDS011;39333;47.044;15.080;2022-12-18T07:53:38;150.80;;;139.32;;
53439;SDS011;39333;47.044;15.080;2022-12-18T07:56:10;135.15;;;123.45;;
53439;SDS011;39333;47.044;15.080;2022-12-18T07:58:56;139.52;;;130.63;;
53439;SDS011;39333;47.044;15.080;2022-12-18T08:01:24;144.45;;;133.82;;
53439;SDS011;39333;47.044;15.080;2022-12-18T08:03:51;136.40;;;127.97;;
53439;SDS011;39333;47.044;15.080;2022-12-18T08:06:18;126.50;;;116.80;;
53439;SDS011;39333;47.044;15.080;2022-12-18T08:08:50;123.65;;;115.80;;
53439;SDS011;39333;47.044;15.080;2022-12-18T08:11:21;127.10;;;117.95;;
53439;SDS011;39333;47.044;15.080;2022-12-18T08:13:49;119.63;;;112.22;;
53439;SDS011;39333;47.044;15.080;2022-12-18T08:16:16;128.10;;;118.70;;
53439;SDS011;39333;47.044;15.080;2022-12-18T08:18:44;127.65;;;119.05;;
53439;SDS011;39333;47.044;15.080;2022-12-18T08:21:12;136.75;;;126.38;;
53439;SDS011;39333;47.044;15.080;2022-12-18T08:23:41;126.05;;;116.90;;
53439;SDS011;39333;47.044;15.080;2022-12-18T08:26:09;123.13;;;114.57;;
53439;SDS011;39333;47.044;15.080;2022-12-18T08:28:37;133.05;;;124.50;;
53439;SDS011;39333;47.044;15.080;2022-12-18T08:31:04;129.80;;;121.03;;
53439;SDS011;39333;47.044;15.080;2022-12-18T08:33:31;122.85;;;115.78;;
53439;SDS011;39333;47.044;15.080;2022-12-18T08:35:58;114.97;;;109.57;;
53439;SDS011;39333;47.044;15.080;2022-12-18T08:38:26;134.27;;;127.22;;
53439;SDS011;39333;47.044;15.080;2022-12-18T08:41:00;123.35;;;117.00;;
53439;SDS011;39333;47.044;15.080;2022-12-18T08:43:35;122.90;;;115.20;;
53439;SDS011;39333;47.044;15.080;2022-12-18T08:46:20;128.18;;;120.30;;
53439;SDS011;39333;47.044;15.080;2022-12-18T08:48:50;124.88;;;116.70;;
53439;SDS011;39333;47.044;15.080;2022-12-18T08:51:18;135.30;;;126.32;;
53439;SDS011;39333;47.044;15.080;2022-12-18T08:53:45;139.65;;;132.30;;
53439;SDS011;39333;47.044;15.080;2022-12-18T08:56:14;134.43;;;128.05;;
53439;SDS011;39333;47.044;15.080;2022-12-18T08:58:41;125.95;;;120.18;;
53439;SDS011;39333;47.044;15.080;2022-12-18T09:01:08;132.30;;;126.28;;
53439;SDS011;39333;47.044;15.080;2022-12-18T09:03:36;140.77;;;133.82;;
53439;SDS011;39333;47.044;15.080;2022-12-18T09:06:04;130.32;;;124.38;;
53439;SDS011;39333;47.044;15.080;2022-12-18T09:08:32;135.80;;;129.55;;
53439;SDS011;39333;47.044;15.080;2022-12-18T09:10:58;136.85;;;130.07;;
53439;SDS011;39333;47.044;15.080;2022-12-18T09:13:25;129.85;;;123.63;;
53439;SDS011;39333;47.044;15.080;2022-12-18T09:15:52;141.30;;;134.15;;
53439;SDS011;39333;47.044;15.080;2022-12-18T09:18:21;139.45;;;132.85;;
53439;SDS011;39333;47.044;15.080;2022-12-18T09:20:49;128.23;;;121.93;;
53439;SDS011;39333;47.044;15.080;2022-12-18T09:23:19;140.45;;;133.60;;
53439;SDS011;39333;47.044;15.080;2022-12-18T09:25:47;148.60;;;139.00;;
53439;SDS011;39333;47.044;15.080;2022-12-18T09:28:14;128.43;;;122.50;;
53439;SDS011;39333;47.044;15.080;2022-12-18T09:30:44;125.53;;;119.10;;
53439;SDS011;39333;47.044;15.080;2022-12-18T09:33:14;142.75;;;135.63;;
53439;SDS011;39333;47.044;15.080;2022-12-18T09:35:42;145.80;;;138.50;;
53439;SDS011;39333;47.044;15.080;2022-12-18T09:38:14;140.05;;;133.32;;
53439;SDS011;39333;47.044;15.080;2022-12-18T09:40:43;130.80;;;124.45;;
53439;SDS011;39333;47.044;15.080;2022-12-18T09:43:18;144.73;;;138.02;;
53439;SDS011;39333;47.044;15.080;2022-12-18T09:45:50;157.30;;;148.23;;
53439;SDS011;39333;47.044;15.080;2022-12-18T09:51:06;129.55;;;123.38;;
53439;SDS011;39333;47.044;15.080;2022-12-18T09:53:41;128.73;;;122.80;;
53439;SDS011;39333;47.044;15.080;2022-12-18T09:56:15;148.80;;;140.80;;
53439;SDS011;39333;47.044;15.080;2022-12-18T09:59:03;147.68;;;140.23;;
53439;SDS011;39333;47.044;15.080;2022-12-18T10:01:31;140.48;;;133.88;;
53439;SDS011;39333;47.044;15.080;2022-12-18T10:04:09;131.85;;;125.55;;
53439;SDS011;39333;47.044;15.080;2022-12-18T10:12:23;134.13;;;127.63;;
53439;SDS011;39333;47.044;15.080;2022-12-18T10:26:07;145.30;;;137.25;;
53439;SDS011;39333;47.044;15.080;2022-12-18T10:28:37;133.23;;;126.72;;
53439;SDS011;39333;47.044;15.080;2022-12-18T10:31:06;131.48;;;125.72;;
53439;SDS011;39333;47.044;15.080;2022-12-18T10:33:40;130.60;;;123.63;;
53439;SDS011;39333;47.044;15.080;2022-12-18T10:36:07;141.25;;;134.18;;
53439;SDS011;39333;47.044;15.080;2022-12-18T10:38:34;144.23;;;137.55;;
53439;SDS011;39333;47.044;15.080;2022-12-18T10:43:31;141.80;;;135.20;;
53439;SDS011;39333;47.044;15.080;2022-12-18T10:48:34;123.97;;;118.22;;
53439;SDS011;39333;47.044;15.080;2022-12-18T10:51:07;139.32;;;133.00;;
53439;SDS011;39333;47.044;15.080;2022-12-18T10:53:40;143.82;;;136.45;;
53439;SDS011;39333;47.044;15.080;2022-12-18T10:56:09;135.98;;;129.50;;
53439;SDS011;39333;47.044;15.080;2022-12-18T10:58:37;130.50;;;124.05;;
53439;SDS011;39333;47.044;15.080;2022-12-18T11:01:13;159.40;;;146.80;;
53439;SDS011;39333;47.044;15.080;2022-12-18T11:03:45;205.95;;;157.40;;
53439;SDS011;39333;47.044;15.080;2022-12-18T11:06:28;141.93;;;133.60;;
53439;SDS011;39333;47.044;15.080;2022-12-18T11:11:40;146.55;;;136.50;;
53439;SDS011;39333;47.044;15.080;2022-12-18T11:14:17;145.75;;;137.55;;
53439;SDS011;39333;47.044;15.080;2022-12-18T11:16:49;146.68;;;137.75;;
53439;SDS011;39333;47.044;15.080;2022-12-18T11:19:38;142.77;;;132.88;;
53439;SDS011;39333;47.044;15.080;2022-12-18T11:22:20;145.85;;;137.07;;
53439;SDS011;39333;47.044;15.080;2022-12-18T11:27:59;129.50;;;120.55;;
53439;SDS011;39333;47.044;15.080;2022-12-18T11:30:46;138.15;;;128.73;;
53439;SDS011;39333;47.044;15.080;2022-12-18T11:33:21;138.55;;;129.65;;
53439;SDS011;39333;47.044;15.080;2022-12-18T11:35:50;134.65;;;126.03;;
53439;SDS011;39333;47.044;15.080;2022-12-18T11:38:22;126.28;;;118.45;;
53439;SDS011;39333;47.044;15.080;2022-12-18T11:40:56;122.93;;;115.93;;
53439;SDS011;39333;47.044;15.080;2022-12-18T11:43:35;134.70;;;126.72;;
53439;SDS011;39333;47.044;15.080;2022-12-18T11:46:09;128.68;;;119.68;;
53439;SDS011;39333;47.044;15.080;2022-12-18T11:51:49;129.40;;;119.70;;
53439;SDS011;39333;47.044;15.080;2022-12-18T11:54:36;137.52;;;127.88;;
53439;SDS011;39333;47.044;15.080;2022-12-18T11:57:13;135.20;;;126.63;;
53439;SDS011;39333;47.044;15.080;2022-12-18T12:00:03;135.48;;;127.20;;
53439;SDS011;39333;47.044;15.080;2022-12-18T12:05:44;125.68;;;118.60;;
53439;SDS011;39333;47.044;15.080;2022-12-18T12:08:15;139.75;;;129.27;;
53439;SDS011;39333;47.044;15.080;2022-12-18T12:16:31;134.52;;;125.93;;
53439;SDS011;39333;47.044;15.080;2022-12-18T12:22:13;193.45;;;179.15;;
53439;SDS011;39333;47.044;15.080;2022-12-18T12:30:20;177.57;;;166.57;;
53439;SDS011;39333;47.044;15.080;2022-12-18T12:41:05;170.80;;;160.18;;
53439;SDS011;39333;47.044;15.080;2022-12-18T12:43:57;187.20;;;176.63;;
53439;SDS011;39333;47.044;15.080;2022-12-18T12:46:28;194.48;;;182.25;;
53439;SDS011;39333;47.044;15.080;2022-12-18T12:48:59;199.27;;;186.35;;
53439;SDS011;39333;47.044;15.080;2022-12-18T12:51:37;199.18;;;187.38;;
53439;SDS011;39333;47.044;15.080;2022-12-18T12:54:11;197.75;;;183.82;;
53439;SDS011;39333;47.044;15.080;2022-12-18T13:04:41;198.75;;;184.00;;
53439;SDS011;39333;47.044;15.080;2022-12-18T13:07:35;190.15;;;177.77;;
53439;SDS011;39333;47.044;15.080;2022-12-18T13:13:18;201.38;;;187.27;;
53439;SDS011;39333;47.044;15.080;2022-12-18T13:15:50;179.40;;;165.05;;
53439;SDS011;39333;47.044;15.080;2022-12-18T13:18:32;179.65;;;167.20;;
53439;SDS011;39333;47.044;15.080;2022-12-18T13:23:33;179.57;;;167.68;;
53439;SDS011;39333;47.044;15.080;2022-12-18T13:31:03;173.27;;;162.93;;
53439;SDS011;39333;47.044;15.080;2022-12-18T13:38:42;189.15;;;178.65;;
53439;SDS011;39333;47.044;15.080;2022-12-18T13:43:47;187.55;;;177.15;;
53439;SDS011;39333;47.044;15.080;2022-12-18T13:46:23;166.43;;;157.55;;
53439;SDS011;39333;47.044;15.080;2022-12-18T13:49:03;185.38;;;175.48;;
53439;SDS011;39333;47.044;15.080;2022-12-18T13:51:46;165.75;;;156.48;;
53439;SDS011;39333;47.044;15.080;2022-12-18T13:56:56;179.88;;;169.20;;
53439;SDS011;39333;47.044;15.080;2022-12-18T14:02:15;175.13;;;165.27;;
53439;SDS011;39333;47.044;15.080;2022-12-18T14:04:50;182.20;;;172.65;;
53439;SDS011;39333;47.044;15.080;2022-12-18T14:07:25;174.25;;;164.60;;
53439;SDS011;39333;47.044;15.080;2022-12-18T14:10:02;183.25;;;173.18;;
53439;SDS011;39333;47.044;15.080;2022-12-18T14:12:49;169.88;;;159.93;;
53439;SDS011;39333;47.044;15.080;2022-12-18T14:15:31;176.00;;;166.27;;
53439;SDS011;39333;47.044;15.080;2022-12-18T14:18:01;171.52;;;160.70;;
53439;SDS011;39333;47.044;15.080;2022-12-18T14:20:35;165.73;;;155.85;;
53439;SDS011;39333;47.044;15.080;2022-12-18T14:23:02;164.05;;;155.18;;
53439;SDS011;39333;47.044;15.080;2022-12-18T14:25:29;173.50;;;163.02;;
53439;SDS011;39333;47.044;15.080;2022-12-18T14:30:37;170.48;;;160.77;;
53439;SDS011;39333;47.044;15.080;2022-12-18T14:33:09;168.55;;;158.98;;
53439;SDS011;39333;47.044;15.080;2022-12-18T14:35:42;168.73;;;158.48;;
53439;SDS011;39333;47.044;15.080;2022-12-18T14:38:20;182.05;;;170.98;;
53439;SDS011;39333;47.044;15.080;2022-12-18T14:41:02;181.32;;;170.02;;
53439;SDS011;39333;47.044;15.080;2022-12-18T14:43:32;172.85;;;162.80;;
53439;SDS011;39333;47.044;15.080;2022-12-18T14:46:00;173.63;;;162.90;;
53439;SDS011;39333;47.044;15.080;2022-12-18T14:48:39;163.38;;;154.02;;
53439;SDS011;39333;47.044;15.080;2022-12-18T14:51:19;171.43;;;161.32;;
53439;SDS011;39333;47.044;15.080;2022-12-18T14:53:54;182.13;;;170.65;;
53439;SDS011;39333;47.044;15.080;2022-12-18T14:56:27;170.38;;;159.73;;
53439;SDS011;39333;47.044;15.080;2022-12-18T14:58:55;170.32;;;159.93;;
53439;SDS011;39333;47.044;15.080;2022-12-18T15:01:25;169.45;;;159.68;;
53439;SDS011;39333;47.044;15.080;2022-12-18T15:03:54;177.35;;;165.32;;
53439;SDS011;39333;47.044;15.080;2022-12-18T15:06:43;165.30;;;156.25;;
53439;SDS011;39333;47.044;15.080;2022-12-18T15:09:22;175.65;;;165.73;;
53439;SDS011;39333;47.044;15.080;2022-12-18T15:11:55;172.20;;;161.88;;
53439;SDS011;39333;47.044;15.080;2022-12-18T15:14:34;162.98;;;153.35;;
53439;SDS011;39333;47.044;15.080;2022-12-18T15:17:02;171.30;;;160.93;;
53439;SDS011;39333;47.044;15.080;2022-12-18T15:19:35;181.73;;;170.98;;
53439;SDS011;39333;47.044;15.080;2022-12-18T15:22:27;168.10;;;158.43;;
53439;SDS011;39333;47.044;15.080;2022-12-18T15:24:54;180.65;;;169.35;;
53439;SDS011;39333;47.044;15.080;2022-12-18T15:27:23;172.45;;;162.32;;
53439;SDS011;39333;47.044;15.080;2022-12-18T15:32:31;168.07;;;157.23;;
53439;SDS011;39333;47.044;15.080;2022-12-18T15:37:49;179.30;;;168.88;;
53439;SDS011;39333;47.044;15.080;2022-12-18T15:40:19;178.98;;;168.82;;
53439;SDS011;39333;47.044;15.080;2022-12-18T15:42:51;182.27;;;171.80;;
53439;SDS011;39333;47.044;15.080;2022-12-18T15:45:39;172.25;;;159.82;;
53439;SDS011;39333;47.044;15.080;2022-12-18T15:48:41;164.38;;;153.68;;
53439;SDS011;39333;47.044;15.080;2022-12-18T15:51:00;164.60;;;154.38;;
53439;SDS011;39333;47.044;15.080;2022-12-18T15:53:30;171.70;;;160.98;;
53439;SDS011;39333;47.044;15.080;2022-12-18T15:56:00;163.98;;;154.10;;
53439;SDS011;39333;47.044;15.080;2022-12-18T15:58:45;169.70;;;160.32;;
53439;SDS011;39333;47.044;15.080;2022-12-18T16:01:12;163.82;;;153.90;;
53439;SDS011;39333;47.044;15.080;2022-12-18T16:03:39;163.35;;;153.75;;
53439;SDS011;39333;47.044;15.080;2022-12-18T16:06:08;160.32;;;150.82;;
53439;SDS011;39333;47.044;15.080;2022-12-18T16:08:35;164.13;;;154.25;;
53439;SDS011;39333;47.044;15.080;2022-12-18T16:11:02;171.63;;;161.77;;
53439;SDS011;39333;47.044;15.080;2022-12-18T16:13:29;171.40;;;161.18;;